Dades meteomassalio
Diari Summary for Octubre 8, 2017 Units:  Metric    English   Both
« Previous Day
Next Day »
Diari Semanal Mensual Anual Personalitzat
  Maxima: Minima: Mijana:
Temperatura: 25.0 °C 5.0 °C 13.3 °C
Rosada: 9.3 °C -2.8 °C 4.2 °C
Humitat: 92 % 24 % 61 %
Velocitat del vent: 17.7 km/h 0.0 km/h 3.1 km/h
Racha vent: 17.7 km/h - -
Vent:- - SW
Pressio: 1024.6 hPa 1019.9 hPa -
Pluja: 0.0 mm    
Historical Graphs
 
 
Tabular Data for Octubre 8, 2017
Time Temperature Dew Point Pressure Wind Wind Speed Wind Gust Humidity Rainfall Rate (Hourly) solar Conditions
00:02 10.0 °C 6.7 °C 1024.6 hPa Calm     80 % 0.0 mm 0.0 W/m2 CLR
00:07 9.4 °C 6.3 °C 1024.6 hPa Calm     81 % 0.0 mm 0.0 W/m2 CLR
00:17 9.4 °C 6.3 °C 1024.6 hPa Calm     81 % 0.0 mm 0.0 W/m2 CLR
00:22 9.4 °C 6.5 °C 1024.6 hPa Calm     82 % 0.0 mm 0.0 W/m2 CLR
00:27 9.4 °C 6.5 °C 1024.6 hPa Calm     82 % 0.0 mm 0.0 W/m2 CLR
00:32 9.4 °C 6.7 °C 1024.6 hPa Calm     83 % 0.0 mm 0.0 W/m2 CLR
00:37 9.4 °C 6.7 °C 1024.3 hPa Calm     83 % 0.0 mm 0.0 W/m2 CLR
00:42 9.4 °C 6.7 °C 1024.3 hPa Calm     83 % 0.0 mm 0.0 W/m2 CLR
00:47 9.4 °C 6.7 °C 1024.3 hPa Calm     83 % 0.0 mm 0.0 W/m2 CLR
00:52 9.4 °C 6.9 °C 1024.3 hPa Calm     84 % 0.0 mm 0.0 W/m2 CLR
00:57 9.4 °C 6.9 °C 1024.3 hPa Calm     84 % 0.0 mm 0.0 W/m2 CLR
01:02 8.9 °C 6.3 °C 1024.3 hPa Calm     84 % 0.0 mm 0.0 W/m2 CLR
01:07 8.9 °C 6.3 °C 1024.3 hPa Calm     84 % 0.0 mm 0.0 W/m2 CLR
01:12 8.9 °C 6.3 °C 1024.3 hPa Calm     84 % 0.0 mm 0.0 W/m2 CLR
01:17 8.3 °C 5.8 °C 1024.3 hPa Calm     84 % 0.0 mm 0.0 W/m2 CLR
01:22 8.9 °C 6.3 °C 1024.3 hPa Calm     84 % 0.0 mm 0.0 W/m2 CLR
01:27 8.9 °C 6.3 °C 1024.3 hPa Calm     84 % 0.0 mm 0.0 W/m2 CLR
01:32 8.9 °C 6.5 °C 1024.3 hPa Calm     85 % 0.0 mm 0.0 W/m2 CLR
01:37 8.9 °C 6.5 °C 1024.3 hPa SE 3.7 km/h 3.7 km/h 85 % 0.0 mm 0.0 W/m2 CLR
01:42 8.9 °C 6.7 °C 1024.3 hPa SE 5.6 km/h 5.6 km/h 86 % 0.0 mm 0.0 W/m2 CLR
01:47 8.9 °C 6.7 °C 1024.3 hPa SSE 3.2 km/h 3.2 km/h 86 % 0.0 mm 0.0 W/m2 CLR
01:52 8.9 °C 6.7 °C 1024.3 hPa SSE 5.6 km/h 5.6 km/h 86 % 0.0 mm 0.0 W/m2 CLR
01:57 8.9 °C 6.7 °C 1024.3 hPa Calm     86 % 0.0 mm 0.0 W/m2 CLR
02:02 8.3 °C 6.1 °C 1024.3 hPa Calm     86 % 0.0 mm 0.0 W/m2 CLR
02:07 8.3 °C 6.1 °C 1024.3 hPa Calm     86 % 0.0 mm 0.0 W/m2 CLR
02:12 8.3 °C 6.1 °C 1024.3 hPa Calm     86 % 0.0 mm 0.0 W/m2 CLR
02:17 8.3 °C 6.1 °C 1024.3 hPa SSE 1.9 km/h   86 % 0.0 mm 0.0 W/m2 CLR
02:22 7.8 °C 5.6 °C 1024.3 hPa Calm     86 % 0.0 mm 0.0 W/m2 CLR
02:27 7.8 °C 5.7 °C 1024.3 hPa Calm     87 % 0.0 mm 0.0 W/m2 CLR
02:32 7.8 °C 5.7 °C 1024.3 hPa Calm     87 % 0.0 mm 0.0 W/m2 CLR
02:37 7.8 °C 5.7 °C 1024.3 hPa Calm     87 % 0.0 mm 0.0 W/m2 CLR
02:42 7.8 °C 5.9 °C 1024.3 hPa SE 5.6 km/h 5.6 km/h 88 % 0.0 mm 0.0 W/m2 CLR
02:47 7.8 °C 5.9 °C 1024.3 hPa SE 3.2 km/h 3.2 km/h 88 % 0.0 mm 0.0 W/m2 CLR
02:52 7.2 °C 5.4 °C 1024.3 hPa Calm     88 % 0.0 mm 0.0 W/m2 CLR
02:57 7.2 °C 5.4 °C 1024.3 hPa Calm     88 % 0.0 mm 0.0 W/m2 CLR
03:02 7.2 °C 5.4 °C 1024.3 hPa Calm     88 % 0.0 mm 0.0 W/m2 CLR
03:08 7.2 °C 5.4 °C 1024.3 hPa SE 5.6 km/h 5.6 km/h 88 % 0.0 mm 0.0 W/m2 CLR
03:13 7.8 °C 5.9 °C 1023.9 hPa SSE 5.6 km/h 5.6 km/h 88 % 0.0 mm 0.0 W/m2 CLR
03:18 7.8 °C 6.1 °C 1023.9 hPa SSE 5.6 km/h 5.6 km/h 89 % 0.0 mm 0.0 W/m2 CLR
03:23 7.8 °C 5.9 °C 1023.9 hPa Calm     88 % 0.0 mm 0.0 W/m2 CLR
03:28 7.8 °C 5.9 °C 1023.9 hPa Calm     88 % 0.0 mm 0.0 W/m2 CLR
03:38 7.2 °C 5.4 °C 1023.9 hPa Calm     88 % 0.0 mm 0.0 W/m2 CLR
03:43 7.2 °C 5.4 °C 1023.9 hPa Calm     88 % 0.0 mm 0.0 W/m2 CLR
03:48 7.2 °C 5.4 °C 1023.9 hPa Calm     88 % 0.0 mm 0.0 W/m2 CLR
03:53 7.2 °C 5.4 °C 1023.9 hPa Calm     88 % 0.0 mm 0.0 W/m2 CLR
03:58 7.2 °C 5.6 °C 1023.6 hPa Calm     89 % 0.0 mm 0.0 W/m2 CLR
04:03 7.2 °C 5.4 °C 1023.9 hPa Calm     88 % 0.0 mm 0.0 W/m2 CLR
04:13 7.8 °C 6.1 °C 1023.6 hPa Calm     89 % 0.0 mm 0.0 W/m2 CLR
04:18 7.8 °C 6.1 °C 1023.6 hPa Calm     89 % 0.0 mm 0.0 W/m2 CLR
04:23 7.2 °C 5.6 °C 1023.6 hPa Calm     89 % 0.0 mm 0.0 W/m2 CLR
04:28 7.2 °C 5.6 °C 1023.6 hPa Calm     89 % 0.0 mm 0.0 W/m2 CLR
04:33 7.2 °C 5.6 °C 1023.6 hPa Calm     89 % 0.0 mm 0.0 W/m2 CLR
04:38 7.2 °C 5.6 °C 1023.6 hPa Calm     89 % 0.0 mm 0.0 W/m2 CLR
04:43 7.2 °C 5.6 °C 1023.6 hPa Calm     89 % 0.0 mm 0.0 W/m2 CLR
04:48 7.2 °C 5.6 °C 1023.6 hPa Calm     89 % 0.0 mm 0.0 W/m2 CLR
04:53 7.2 °C 5.6 °C 1023.6 hPa Calm     89 % 0.0 mm 0.0 W/m2 CLR
04:58 7.2 °C 5.6 °C 1023.6 hPa Calm     89 % 0.0 mm 0.0 W/m2 CLR
05:03 7.2 °C 5.6 °C 1023.6 hPa Calm     89 % 0.0 mm 0.0 W/m2 CLR
05:08 7.2 °C 5.7 °C 1023.6 hPa Calm     90 % 0.0 mm 0.0 W/m2 CLR
05:13 7.2 °C 5.7 °C 1023.6 hPa Calm     90 % 0.0 mm 0.0 W/m2 CLR
05:18 7.2 °C 5.7 °C 1023.6 hPa Calm     90 % 0.0 mm 0.0 W/m2 CLR
05:23 7.2 °C 5.7 °C 1023.6 hPa Calm     90 % 0.0 mm 0.0 W/m2 CLR
05:25 7.2 °C 5.7 °C 1023.6 hPa Calm     90 % 0.0 mm 0.0 W/m2 CLR
05:30 7.2 °C 5.7 °C 1023.6 hPa Calm     90 % 0.0 mm 0.0 W/m2 CLR
05:35 6.7 °C 5.2 °C 1023.6 hPa Calm     90 % 0.0 mm 0.0 W/m2 CLR
05:40 6.7 °C 5.2 °C 1023.6 hPa Calm     90 % 0.0 mm 0.0 W/m2 CLR
05:45 6.7 °C 5.2 °C 1023.6 hPa Calm     90 % 0.0 mm 0.0 W/m2 CLR
05:50 6.7 °C 5.2 °C 1023.6 hPa Calm     90 % 0.0 mm 0.0 W/m2 CLR
05:55 6.1 °C 4.6 °C 1023.6 hPa Calm     90 % 0.0 mm 0.0 W/m2 CLR
06:00 6.1 °C 4.6 °C 1023.6 hPa Calm     90 % 0.0 mm 0.0 W/m2 CLR
06:05 6.1 °C 4.6 °C 1023.6 hPa Calm     90 % 0.0 mm 0.0 W/m2 CLR
06:06 6.1 °C 4.6 °C 1023.6 hPa Calm     90 % 0.0 mm 0.0 W/m2 CLR
06:11 6.1 °C 4.8 °C 1023.6 hPa Calm     91 % 0.0 mm 0.0 W/m2 CLR
06:16 6.1 °C 4.8 °C 1023.6 hPa Calm     91 % 0.0 mm 0.0 W/m2 CLR
06:18 6.1 °C 4.8 °C 1023.6 hPa Calm     91 % 0.0 mm 0.0 W/m2 CLR
06:23 6.1 °C 4.8 °C 1023.6 hPa Calm     91 % 0.0 mm 0.0 W/m2 CLR
06:28 5.6 °C 4.1 °C 1023.6 hPa Calm     90 % 0.0 mm 0.0 W/m2 CLR
06:33 5.6 °C 4.1 °C 1023.6 hPa Calm     90 % 0.0 mm 0.0 W/m2 CLR
06:38 5.6 °C 4.2 °C 1023.6 hPa Calm     91 % 0.0 mm 0.0 W/m2 CLR
06:43 5.6 °C 4.2 °C 1023.6 hPa Calm     91 % 0.0 mm 0.0 W/m2 CLR
06:48 5.6 °C 4.2 °C 1023.6 hPa Calm     91 % 0.0 mm 0.0 W/m2 CLR
06:53 5.6 °C 4.2 °C 1023.6 hPa Calm     91 % 0.0 mm 0.0 W/m2 CLR
06:58 5.6 °C 4.2 °C 1023.6 hPa Calm     91 % 0.0 mm 0.0 W/m2 CLR
07:03 5.6 °C 4.2 °C 1023.9 hPa Calm     91 % 0.0 mm 0.0 W/m2 CLR
07:08 5.6 °C 4.2 °C 1023.9 hPa Calm     91 % 0.0 mm 0.0 W/m2 CLR
07:13 5.6 °C 4.2 °C 1023.6 hPa Calm     91 % 0.0 mm 0.0 W/m2 CLR
07:23 5.6 °C 4.2 °C 1023.9 hPa Calm     91 % 0.0 mm 0.0 W/m2 CLR
07:28 5.6 °C 4.2 °C 1023.6 hPa Calm     91 % 0.0 mm 0.0 W/m2 CLR
07:33 5.0 °C 3.7 °C 1023.6 hPa Calm     91 % 0.0 mm 0.0 W/m2 CLR
07:38 5.0 °C 3.7 °C 1023.6 hPa Calm     91 % 0.0 mm 0.0 W/m2 CLR
07:43 5.0 °C 3.7 °C 1023.9 hPa Calm     91 % 0.0 mm 0.0 W/m2 CLR
07:48 5.0 °C 3.7 °C 1023.9 hPa Calm     91 % 0.0 mm 0.0 W/m2 CLR
07:53 5.0 °C 3.7 °C 1023.9 hPa Calm     91 % 0.0 mm 0.0 W/m2 CLR
07:58 5.0 °C 3.7 °C 1023.9 hPa Calm     91 % 0.0 mm 0.0 W/m2 CLR
08:03 5.0 °C 3.7 °C 1023.9 hPa Calm     91 % 0.0 mm 5.0 W/m2 OVC
08:08 5.0 °C 3.7 °C 1023.9 hPa Calm     91 % 0.0 mm 7.0 W/m2 BKN
08:13 5.0 °C 3.8 °C 1023.9 hPa Calm     92 % 0.0 mm 11.0 W/m2 BKN
08:18 5.0 °C 3.7 °C 1023.9 hPa Calm     91 % 0.0 mm 12.0 W/m2 BKN
08:23 5.0 °C 3.7 °C 1023.9 hPa Calm     91 % 0.0 mm 14.0 W/m2 BKN
08:33 5.0 °C 3.7 °C 1023.9 hPa Calm     91 % 0.0 mm 23.0 W/m2 BKN
08:38 5.6 °C 4.2 °C 1023.9 hPa Calm     91 % 0.0 mm 30.0 W/m2 BKN
08:43 5.6 °C 4.2 °C 1023.9 hPa Calm     91 % 0.0 mm 42.0 W/m2 BKN
08:48 5.6 °C 4.2 °C 1023.9 hPa Calm     91 % 0.0 mm 49.0 W/m2 SCT
08:53 5.6 °C 4.2 °C 1023.9 hPa Calm     91 % 0.0 mm 70.0 W/m2 FEW
08:58 6.1 °C 4.6 °C 1024.3 hPa Calm     90 % 0.0 mm 84.0 W/m2 FEW
09:03 6.1 °C 4.6 °C 1024.3 hPa Calm     90 % 0.0 mm 97.0 W/m2 CLR
09:04 6.1 °C 4.6 °C 1024.3 hPa Calm     90 % 0.0 mm 97.0 W/m2 FEW
09:14 6.7 °C 4.8 °C 1024.3 hPa Calm     88 % 0.0 mm 104.0 W/m2 CLR
09:19 7.2 °C 5.2 °C 1023.9 hPa Calm     87 % 0.0 mm 100.0 W/m2 CLR
09:24 7.8 °C 5.6 °C 1024.3 hPa Calm     86 % 0.0 mm 118.0 W/m2 CLR
09:29 7.8 °C 5.4 °C 1024.3 hPa Calm     85 % 0.0 mm 188.0 W/m2 CLR
09:34 8.3 °C 5.9 °C 1024.3 hPa Calm     85 % 0.0 mm 207.0 W/m2 CLR
09:39 8.3 °C 5.6 °C 1024.3 hPa Calm     83 % 0.0 mm 227.0 W/m2 CLR
09:44 8.9 °C 6.2 °C 1024.3 hPa Calm     83 % 0.0 mm 244.0 W/m2 CLR
09:49 9.4 °C 6.3 °C 1024.3 hPa Calm     81 % 0.0 mm 260.0 W/m2 CLR
09:54 10.0 °C 6.7 °C 1024.3 hPa Calm     80 % 0.0 mm 278.0 W/m2 CLR
09:59 10.6 °C 7.1 °C 1024.3 hPa Calm     79 % 0.0 mm 294.0 W/m2 CLR
10:04 10.6 °C 7.1 °C 1024.3 hPa Calm     79 % 0.0 mm 308.0 W/m2 CLR
10:14 11.7 °C 7.9 °C 1023.9 hPa Calm     78 % 0.0 mm 339.0 W/m2 CLR
10:19 12.2 °C 8.3 °C 1023.9 hPa Calm     77 % 0.0 mm 353.0 W/m2 CLR
10:24 12.8 °C 8.8 °C 1023.9 hPa Calm     77 % 0.0 mm 367.0 W/m2 CLR
10:29 12.8 °C 8.7 °C 1023.9 hPa Calm     76 % 0.0 mm 380.0 W/m2 CLR
10:34 13.3 °C 9.0 °C 1023.9 hPa Calm     75 % 0.0 mm 397.0 W/m2 CLR
10:44 13.9 °C 8.7 °C 1023.9 hPa Calm     71 % 0.0 mm 420.0 W/m2 CLR
10:49 14.4 °C 8.6 °C 1023.9 hPa Calm     68 % 0.0 mm 434.0 W/m2 CLR
10:54 15.0 °C 8.7 °C 1023.9 hPa Calm     66 % 0.0 mm 450.0 W/m2 CLR
10:59 15.6 °C 8.6 °C 1023.9 hPa SE 1.9 km/h 1.9 km/h 63 % 0.0 mm 461.0 W/m2 CLR
11:04 16.1 °C 8.3 °C 1023.9 hPa Calm     60 % 0.0 mm 473.0 W/m2 CLR
11:09 16.1 °C 8.1 °C 1023.9 hPa ESE 7.4 km/h 7.4 km/h 59 % 0.0 mm 483.0 W/m2 CLR
11:14 16.7 °C 7.8 °C 1023.9 hPa SSW 9.3 km/h 9.3 km/h 56 % 0.0 mm 497.0 W/m2 CLR
11:19 17.2 °C 8.4 °C 1023.9 hPa South 3.2 km/h 3.2 km/h 56 % 0.0 mm 506.0 W/m2 CLR
11:29 17.8 °C 7.5 °C 1023.6 hPa WSW 14.8 km/h 14.8 km/h 51 % 0.0 mm 531.0 W/m2 CLR
11:35 18.3 °C 8.3 °C 1023.6 hPa WSW 7.4 km/h 7.4 km/h 52 % 0.0 mm 540.0 W/m2 CLR
11:40 18.3 °C 8.0 °C 1023.6 hPa West 14.5 km/h 14.5 km/h 51 % 0.0 mm 552.0 W/m2 CLR
11:45 18.9 °C 8.2 °C 1023.6 hPa SW 13.0 km/h 13.0 km/h 50 % 0.0 mm 563.0 W/m2 CLR
11:50 18.9 °C 7.9 °C 1023.6 hPa SW 9.3 km/h 9.3 km/h 49 % 0.0 mm 571.0 W/m2 CLR
11:55 19.4 °C 8.2 °C 1023.6 hPa WSW 13.0 km/h 13.0 km/h 48 % 0.0 mm 578.0 W/m2 CLR
12:00 19.4 °C 8.2 °C 1023.6 hPa West 11.3 km/h 11.3 km/h 48 % 0.0 mm 591.0 W/m2 CLR
12:05 20.0 °C 8.3 °C 1023.6 hPa WSW 16.7 km/h 16.7 km/h 47 % 0.0 mm 598.0 W/m2 CLR
12:10 20.6 °C 8.8 °C 1023.6 hPa SSW 7.4 km/h 7.4 km/h 47 % 0.0 mm 605.0 W/m2 CLR
12:15 20.6 °C 8.8 °C 1023.6 hPa Calm   0.6 km/h 47 % 0.0 mm 613.0 W/m2 CLR
12:20 20.6 °C 8.2 °C 1023.6 hPa WSW 5.6 km/h   45 % 0.0 mm 621.0 W/m2 CLR
12:25 21.1 °C 8.7 °C 1023.6 hPa WSW 14.8 km/h 14.8 km/h 45 % 0.0 mm 629.0 W/m2 CLR
12:30 21.1 °C 8.4 °C 1023.2 hPa SW 14.8 km/h 14.8 km/h 44 % 0.0 mm 635.0 W/m2 CLR
12:35 21.1 °C 8.7 °C 1023.2 hPa SW 11.1 km/h 11.1 km/h 45 % 0.0 mm 640.0 W/m2 CLR
12:40 21.1 °C 8.4 °C 1023.2 hPa SSW 13.0 km/h 13.0 km/h 44 % 0.0 mm 645.0 W/m2 CLR
12:45 21.1 °C 8.1 °C 1023.2 hPa Calm     43 % 0.0 mm 652.0 W/m2 CLR
12:50 21.1 °C 8.1 °C 1023.2 hPa South 7.4 km/h 7.4 km/h 43 % 0.0 mm 656.0 W/m2 CLR
12:55 21.1 °C 8.1 °C 1023.2 hPa SW 5.6 km/h   43 % 0.0 mm 661.0 W/m2 CLR
13:00 21.7 °C 8.2 °C 1023.2 hPa SSW 11.1 km/h 11.1 km/h 42 % 0.0 mm 668.0 W/m2 CLR
13:05 22.2 °C 8.7 °C 1023.2 hPa Calm     42 % 0.0 mm 670.0 W/m2 CLR
13:10 22.2 °C 8.3 °C 1023.2 hPa West 6.4 km/h 6.4 km/h 41 % 0.0 mm 675.0 W/m2 CLR
13:15 22.2 °C 8.3 °C 1023.2 hPa Calm     41 % 0.0 mm 679.0 W/m2 CLR
13:20 21.7 °C 7.8 °C 1022.9 hPa SSW 5.6 km/h 5.6 km/h 41 % 0.0 mm 682.0 W/m2 CLR
13:25 21.7 °C 7.8 °C 1022.9 hPa West 3.7 km/h 3.7 km/h 41 % 0.0 mm 680.0 W/m2 CLR
13:30 22.2 °C 7.9 °C 1022.9 hPa SSW 5.6 km/h 5.6 km/h 40 % 0.0 mm 682.0 W/m2 CLR
13:35 21.7 °C 7.8 °C 1022.9 hPa West 12.9 km/h 12.9 km/h 41 % 0.0 mm 686.0 W/m2 CLR
13:40 22.2 °C 8.3 °C 1022.9 hPa SW 4.8 km/h 4.8 km/h 41 % 0.0 mm 686.0 W/m2 CLR
13:45 22.2 °C 7.9 °C 1022.6 hPa Calm     40 % 0.0 mm 686.0 W/m2 CLR
13:50 22.2 °C 7.9 °C 1022.6 hPa West 11.1 km/h 11.1 km/h 40 % 0.0 mm 687.0 W/m2 CLR
13:55 23.3 °C 9.3 °C 1022.6 hPa NW 3.7 km/h   41 % 0.0 mm 687.0 W/m2 CLR
13:57 23.3 °C 8.9 °C 1022.6 hPa NW 9.7 km/h 9.7 km/h 40 % 0.0 mm 687.0 W/m2 CLR
14:02 22.8 °C 8.4 °C 1022.6 hPa SSW 16.7 km/h 16.7 km/h 40 % 0.0 mm 687.0 W/m2 CLR
14:07 22.8 °C 8.1 °C 1022.6 hPa WSW 14.8 km/h 14.8 km/h 39 % 0.0 mm 686.0 W/m2 CLR
14:12 23.3 °C 8.6 °C 1022.2 hPa WSW 11.1 km/h 11.1 km/h 39 % 0.0 mm 682.0 W/m2 CLR
14:17 23.3 °C 8.2 °C 1022.2 hPa Calm     38 % 0.0 mm 682.0 W/m2 CLR
14:22 23.9 °C 7.9 °C 1022.2 hPa NW 8.0 km/h 8.0 km/h 36 % 0.0 mm 680.0 W/m2 CLR
14:27 23.3 °C 7.8 °C 1022.2 hPa WSW 9.3 km/h 9.3 km/h 37 % 0.0 mm 675.0 W/m2 CLR
14:32 23.9 °C 7.5 °C 1022.2 hPa SW 17.7 km/h 17.7 km/h 35 % 0.0 mm 673.0 W/m2 CLR
14:37 23.9 °C 7.5 °C 1022.2 hPa SSW 16.1 km/h 16.1 km/h 35 % 0.0 mm 673.0 W/m2 CLR
14:42 23.9 °C 6.6 °C 1021.9 hPa SW 11.1 km/h 11.1 km/h 33 % 0.0 mm 668.0 W/m2 CLR
14:47 23.9 °C 6.6 °C 1021.9 hPa WSW 13.0 km/h 13.0 km/h 33 % 0.0 mm 664.0 W/m2 CLR
14:52 23.9 °C 6.2 °C 1021.9 hPa West 14.8 km/h 14.8 km/h 32 % 0.0 mm 657.0 W/m2 CLR
14:57 23.9 °C 6.2 °C 1021.9 hPa WSW 14.8 km/h 14.8 km/h 32 % 0.0 mm 652.0 W/m2 CLR
15:02 24.4 °C 7.1 °C 1021.6 hPa WSW 16.7 km/h 16.7 km/h 33 % 0.0 mm 649.0 W/m2 CLR
15:07 24.4 °C 6.7 °C 1021.6 hPa SW 14.8 km/h 14.8 km/h 32 % 0.0 mm 643.0 W/m2 CLR
15:12 24.4 °C 6.7 °C 1021.6 hPa SSW 14.8 km/h 14.8 km/h 32 % 0.0 mm 636.0 W/m2 CLR
15:17 24.4 °C 6.2 °C 1021.6 hPa WSW 16.7 km/h 16.7 km/h 31 % 0.0 mm 629.0 W/m2 CLR
15:22 24.4 °C 6.2 °C 1021.2 hPa SW 11.3 km/h 11.3 km/h 31 % 0.0 mm 624.0 W/m2 CLR
15:27 24.4 °C 5.7 °C 1021.2 hPa SSW 5.6 km/h 5.6 km/h 30 % 0.0 mm 619.0 W/m2 CLR
15:32 24.4 °C 5.2 °C 1021.2 hPa West 5.6 km/h   29 % 0.0 mm 612.0 W/m2 CLR
15:37 25.0 °C 5.2 °C 1021.2 hPa SSW 5.6 km/h   28 % 0.0 mm 601.0 W/m2 CLR
15:42 25.0 °C 4.7 °C 1020.9 hPa WSW 7.4 km/h 7.4 km/h 27 % 0.0 mm 591.0 W/m2 CLR
15:47 25.0 °C 4.2 °C 1020.9 hPa WSW 14.5 km/h 14.5 km/h 26 % 0.0 mm 584.0 W/m2 CLR
15:52 24.4 °C 4.2 °C 1020.9 hPa WSW 8.0 km/h 8.0 km/h 27 % 0.0 mm 577.0 W/m2 CLR
15:57 25.0 °C 4.2 °C 1020.9 hPa SSW 13.0 km/h 13.0 km/h 26 % 0.0 mm 563.0 W/m2 CLR
15:59 25.0 °C 3.6 °C 1020.9 hPa WSW 9.3 km/h 9.3 km/h 25 % 0.0 mm 559.0 W/m2 CLR
16:04 25.0 °C 4.2 °C 1020.9 hPa SW 13.0 km/h 13.0 km/h 26 % 0.0 mm 548.0 W/m2 CLR
16:09 25.0 °C 4.2 °C 1020.9 hPa SW 11.1 km/h 11.1 km/h 26 % 0.0 mm 538.0 W/m2 CLR
16:14 25.0 °C 4.7 °C 1020.9 hPa Calm     27 % 0.0 mm 526.0 W/m2 CLR
16:19 25.0 °C 5.2 °C 1020.9 hPa SW 12.9 km/h 12.9 km/h 28 % 0.0 mm 513.0 W/m2 CLR
16:24 25.0 °C 4.7 °C 1020.5 hPa SW 16.7 km/h 16.7 km/h 27 % 0.0 mm 503.0 W/m2 CLR
16:29 25.0 °C 4.7 °C 1020.5 hPa SW 7.4 km/h 7.4 km/h 27 % 0.0 mm 492.0 W/m2 CLR
16:34 25.0 °C 5.2 °C 1020.5 hPa WSW 14.5 km/h 14.5 km/h 28 % 0.0 mm 478.0 W/m2 CLR
16:39 25.0 °C 4.7 °C 1020.5 hPa Calm     27 % 0.0 mm 464.0 W/m2 CLR
16:44 25.0 °C 5.2 °C 1020.5 hPa West 13.0 km/h 13.0 km/h 28 % 0.0 mm 454.0 W/m2 CLR
16:49 24.4 °C 4.7 °C 1020.5 hPa WNW 8.0 km/h 8.0 km/h 28 % 0.0 mm 441.0 W/m2 CLR
16:55 24.4 °C 3.7 °C 1020.5 hPa West 11.3 km/h 11.3 km/h 26 % 0.0 mm 427.0 W/m2 CLR
17:00 24.4 °C 4.2 °C 1020.5 hPa South 5.6 km/h   27 % 0.0 mm 410.0 W/m2 CLR
17:05 25.0 °C 4.7 °C 1020.2 hPa Calm     27 % 0.0 mm 396.0 W/m2 CLR
17:10 25.0 °C 4.2 °C 1020.2 hPa Calm     26 % 0.0 mm 383.0 W/m2 CLR
17:15 24.4 °C 3.7 °C 1020.2 hPa WNW 14.8 km/h 14.8 km/h 26 % 0.0 mm 369.0 W/m2 CLR
17:20 25.0 °C 4.2 °C 1020.2 hPa Calm   0.2 km/h 26 % 0.0 mm 353.0 W/m2 CLR
17:25 25.0 °C 4.2 °C 1020.2 hPa Calm     26 % 0.0 mm 339.0 W/m2 CLR
17:30 24.4 °C 3.1 °C 1020.2 hPa NNW 1.9 km/h   25 % 0.0 mm 325.0 W/m2 CLR
17:35 24.4 °C 3.1 °C 1020.2 hPa WNW 5.6 km/h 5.6 km/h 25 % 0.0 mm 309.0 W/m2 CLR
17:40 24.4 °C 3.1 °C 1020.2 hPa Calm     25 % 0.0 mm 294.0 W/m2 CLR
17:45 24.4 °C 3.1 °C 1020.2 hPa WSW 16.1 km/h 16.1 km/h 25 % 0.0 mm 278.0 W/m2 CLR
17:50 23.9 °C 2.7 °C 1020.2 hPa West 11.1 km/h 11.1 km/h 25 % 0.0 mm 258.0 W/m2 CLR
18:00 23.9 °C 2.7 °C 1019.9 hPa WNW 9.3 km/h 9.3 km/h 25 % 0.0 mm 229.0 W/m2 CLR
18:05 23.3 °C 2.2 °C 1019.9 hPa Calm     25 % 0.0 mm 207.0 W/m2 CLR
18:10 23.3 °C 2.2 °C 1020.2 hPa Calm     25 % 0.0 mm 185.0 W/m2 CLR
18:15 22.8 °C 1.7 °C 1019.9 hPa Calm     25 % 0.0 mm 167.0 W/m2 CLR
18:20 22.2 °C 1.2 °C 1020.2 hPa West 11.3 km/h 11.3 km/h 25 % 0.0 mm 149.0 W/m2 CLR
18:25 22.2 °C 0.7 °C 1020.2 hPa Calm     24 % 0.0 mm 134.0 W/m2 CLR
18:31 21.7 °C 0.2 °C 1020.2 hPa Calm     24 % 0.0 mm 113.0 W/m2 CLR
18:36 21.1 °C -0.3 °C 1020.2 hPa Calm     24 % 0.0 mm 97.0 W/m2 CLR
18:41 20.6 °C -0.2 °C 1020.2 hPa Calm     25 % 0.0 mm 81.0 W/m2 FEW
18:46 20.0 °C -0.7 °C 1020.2 hPa Calm     25 % 0.0 mm 60.0 W/m2 SCT
18:56 18.9 °C -1.6 °C 1020.2 hPa Calm     25 % 0.0 mm 40.0 W/m2 BKN
19:01 18.3 °C -1.6 °C 1020.2 hPa Calm     26 % 0.0 mm 26.0 W/m2 BKN
19:05 17.8 °C -2.0 °C 1020.2 hPa West 1.9 km/h   26 % 0.0 mm 19.0 W/m2 BKN
19:11 17.2 °C -1.9 °C 1020.2 hPa Calm     27 % 0.0 mm 14.0 W/m2 BKN
19:16 16.1 °C -2.4 °C 1020.2 hPa Calm     28 % 0.0 mm 12.0 W/m2 BKN
19:21 16.1 °C -2.4 °C 1020.5 hPa Calm     28 % 0.0 mm 9.0 W/m2 BKN
19:26 15.6 °C -2.4 °C 1020.5 hPa Calm     29 % 0.0 mm 7.0 W/m2 BKN
19:36 15.0 °C -2.4 °C 1020.5 hPa Calm     30 % 0.0 mm 0.0 W/m2 OVC
19:41 14.4 °C -2.5 °C 1020.5 hPa Calm     31 % 0.0 mm 0.0 W/m2 CLR
19:46 14.4 °C -2.1 °C 1020.5 hPa Calm     32 % 0.0 mm 0.0 W/m2 CLR
19:56 15.0 °C -1.2 °C 1020.9 hPa Calm     33 % 0.0 mm 0.0 W/m2 CLR
20:01 15.0 °C -0.8 °C 1020.9 hPa Calm     34 % 0.0 mm 0.0 W/m2 CLR
20:06 14.4 °C -0.8 °C 1020.9 hPa Calm     35 % 0.0 mm 0.0 W/m2 CLR
20:11 14.4 °C -0.8 °C 1020.9 hPa Calm     35 % 0.0 mm 0.0 W/m2 CLR
20:16 13.9 °C -0.9 °C 1020.9 hPa Calm     36 % 0.0 mm 0.0 W/m2 CLR
20:21 13.9 °C -0.9 °C 1020.9 hPa Calm     36 % 0.0 mm 0.0 W/m2 CLR
20:26 13.3 °C -1.1 °C 1020.9 hPa Calm     37 % 0.0 mm 0.0 W/m2 CLR
20:31 13.3 °C -0.7 °C 1020.9 hPa Calm     38 % 0.0 mm 0.0 W/m2 CLR
20:36 12.8 °C -1.2 °C 1021.2 hPa Calm     38 % 0.0 mm 0.0 W/m2 CLR
20:41 12.8 °C -0.5 °C 1021.2 hPa Calm     40 % 0.0 mm 0.0 W/m2 CLR
20:51 11.7 °C -1.2 °C 1021.2 hPa Calm     41 % 0.0 mm 0.0 W/m2 CLR
20:56 11.7 °C -0.8 °C 1021.2 hPa Calm     42 % 0.0 mm 0.0 W/m2 CLR
21:01 11.1 °C -1.3 °C 1021.2 hPa Calm     42 % 0.0 mm 0.0 W/m2 CLR
21:06 11.1 °C -1.3 °C 1021.2 hPa Calm     42 % 0.0 mm 0.0 W/m2 CLR
21:11 10.6 °C -1.5 °C 1021.2 hPa Calm     43 % 0.0 mm 0.0 W/m2 CLR
21:16 10.6 °C -1.5 °C 1021.2 hPa Calm     43 % 0.0 mm 0.0 W/m2 CLR
21:21 10.0 °C -1.7 °C 1021.6 hPa Calm     44 % 0.0 mm 0.0 W/m2 CLR
21:26 10.0 °C -1.7 °C 1021.6 hPa Calm     44 % 0.0 mm 0.0 W/m2 CLR
21:31 9.4 °C -1.9 °C 1021.6 hPa SE 9.7 km/h 9.7 km/h 45 % 0.0 mm 0.0 W/m2 CLR
21:36 9.4 °C -1.9 °C 1021.6 hPa SSE 3.7 km/h 3.7 km/h 45 % 0.0 mm 0.0 W/m2 CLR
21:41 8.9 °C -2.1 °C 1021.6 hPa SE 7.4 km/h 7.4 km/h 46 % 0.0 mm 0.0 W/m2 CLR
21:46 8.9 °C -2.1 °C 1021.6 hPa ESE 5.6 km/h 5.6 km/h 46 % 0.0 mm 0.0 W/m2 CLR
21:51 8.9 °C -2.1 °C 1021.6 hPa SE 5.6 km/h 5.6 km/h 46 % 0.0 mm 0.0 W/m2 CLR
22:01 8.3 °C -2.3 °C 1021.6 hPa Calm     47 % 0.0 mm 0.0 W/m2 CLR
22:06 8.3 °C -2.3 °C 1021.6 hPa SE 9.3 km/h 9.3 km/h 47 % 0.0 mm 0.0 W/m2 CLR
22:11 8.3 °C -2.3 °C 1021.6 hPa SE 5.6 km/h 5.6 km/h 47 % 0.0 mm 0.0 W/m2 CLR
22:16 8.3 °C -2.1 °C 1021.9 hPa Calm     48 % 0.0 mm 0.0 W/m2 CLR
22:21 8.3 °C -1.8 °C 1021.6 hPa SE 3.7 km/h 3.7 km/h 49 % 0.0 mm 0.0 W/m2 CLR
22:26 7.8 °C -2.3 °C 1021.9 hPa Calm     49 % 0.0 mm 0.0 W/m2 CLR
22:31 7.8 °C -2.3 °C 1021.6 hPa Calm     49 % 0.0 mm 0.0 W/m2 CLR
22:36 7.8 °C -2.0 °C 1021.6 hPa Calm     50 % 0.0 mm 0.0 W/m2 CLR
22:41 7.8 °C -2.0 °C 1021.9 hPa Calm     50 % 0.0 mm 0.0 W/m2 CLR
22:46 7.8 °C -1.7 °C 1021.9 hPa Calm     51 % 0.0 mm 0.0 W/m2 CLR
22:51 7.8 °C -1.7 °C 1021.9 hPa Calm     51 % 0.0 mm 0.0 W/m2 CLR
22:56 7.2 °C -2.3 °C 1021.9 hPa SSE 5.6 km/h 5.6 km/h 51 % 0.0 mm 0.0 W/m2 CLR
23:01 7.2 °C -2.5 °C 1021.9 hPa SE 5.6 km/h   50 % 0.0 mm 0.0 W/m2 CLR
23:06 7.2 °C -2.3 °C 1021.9 hPa Calm     51 % 0.0 mm 0.0 W/m2 CLR
23:11 6.7 °C -2.8 °C 1021.9 hPa Calm     51 % 0.0 mm 0.0 W/m2 CLR
23:16 6.7 °C -2.5 °C 1021.9 hPa Calm     52 % 0.0 mm 0.0 W/m2 CLR
23:21 6.7 °C -2.5 °C 1022.2 hPa SSE 3.7 km/h 3.7 km/h 52 % 0.0 mm 0.0 W/m2 CLR
23:26 6.7 °C -2.5 °C 1022.2 hPa Calm     52 % 0.0 mm 0.0 W/m2 CLR
23:31 6.7 °C -2.5 °C 1022.2 hPa SE 1.9 km/h   52 % 0.0 mm 0.0 W/m2 CLR
23:36 6.1 °C -2.8 °C 1022.2 hPa Calm     53 % 0.0 mm 0.0 W/m2 CLR
23:41 6.1 °C -2.5 °C 1022.2 hPa Calm     54 % 0.0 mm 0.0 W/m2 CLR
23:46 6.1 °C -2.3 °C 1022.2 hPa Calm     55 % 0.0 mm 0.0 W/m2 CLR
23:51 6.1 °C -2.3 °C 1022.2 hPa Calm     55 % 0.0 mm 0.0 W/m2 CLR
Lo Temps de Massalio
Compliments of Weather Underground - 1.25 mb